sensor_id;sensor_type;location;lat;lon;timestamp;temperature;humidity
42135;DHT22;28312;43.460;11.810;2024-01-11T00:02:06;6.80;91.40
42135;DHT22;28312;43.460;11.810;2024-01-11T00:06:10;6.80;91.40
42135;DHT22;28312;43.460;11.810;2024-01-11T00:10:17;6.80;91.30
42135;DHT22;28312;43.460;11.810;2024-01-11T00:14:21;6.80;91.30
42135;DHT22;28312;43.460;11.810;2024-01-11T00:18:24;6.80;91.30
42135;DHT22;28312;43.460;11.810;2024-01-11T00:22:28;6.80;91.20
42135;DHT22;28312;43.460;11.810;2024-01-11T00:26:32;6.70;91.10
42135;DHT22;28312;43.460;11.810;2024-01-11T00:30:35;6.70;91.00
42135;DHT22;28312;43.460;11.810;2024-01-11T00:34:39;6.70;90.90
42135;DHT22;28312;43.460;11.810;2024-01-11T00:38:42;6.50;90.80
42135;DHT22;28312;43.460;11.810;2024-01-11T00:42:46;6.40;90.70
42135;DHT22;28312;43.460;11.810;2024-01-11T00:46:49;6.40;90.60
42135;DHT22;28312;43.460;11.810;2024-01-11T00:50:53;6.30;90.50
42135;DHT22;28312;43.460;11.810;2024-01-11T00:54:57;6.20;90.50
42135;DHT22;28312;43.460;11.810;2024-01-11T00:59:00;6.20;90.50
42135;DHT22;28312;43.460;11.810;2024-01-11T01:03:04;6.10;90.50
42135;DHT22;28312;43.460;11.810;2024-01-11T01:07:08;6.10;90.40
42135;DHT22;28312;43.460;11.810;2024-01-11T01:11:11;6.10;90.40
42135;DHT22;28312;43.460;11.810;2024-01-11T01:15:15;6.00;90.40
42135;DHT22;28312;43.460;11.810;2024-01-11T01:19:18;5.90;90.30
42135;DHT22;28312;43.460;11.810;2024-01-11T01:23:22;5.90;90.20
42135;DHT22;28312;43.460;11.810;2024-01-11T01:27:25;5.80;90.10
42135;DHT22;28312;43.460;11.810;2024-01-11T01:31:29;5.70;90.10
42135;DHT22;28312;43.460;11.810;2024-01-11T01:35:33;5.70;90.10
42135;DHT22;28312;43.460;11.810;2024-01-11T01:39:39;5.70;90.10
42135;DHT22;28312;43.460;11.810;2024-01-11T01:43:42;5.70;90.20
42135;DHT22;28312;43.460;11.810;2024-01-11T01:47:46;5.70;90.40
42135;DHT22;28312;43.460;11.810;2024-01-11T01:51:50;5.70;90.40
42135;DHT22;28312;43.460;11.810;2024-01-11T01:55:54;5.70;90.40
42135;DHT22;28312;43.460;11.810;2024-01-11T01:59:59;5.70;90.40
42135;DHT22;28312;43.460;11.810;2024-01-11T02:04:02;5.70;90.40
42135;DHT22;28312;43.460;11.810;2024-01-11T02:08:07;5.70;90.50
42135;DHT22;28312;43.460;11.810;2024-01-11T02:12:12;5.70;90.50
42135;DHT22;28312;43.460;11.810;2024-01-11T02:16:16;5.70;90.60
42135;DHT22;28312;43.460;11.810;2024-01-11T02:20:20;5.70;90.50
42135;DHT22;28312;43.460;11.810;2024-01-11T02:24:23;5.70;90.40
42135;DHT22;28312;43.460;11.810;2024-01-11T02:28:27;5.70;90.30
42135;DHT22;28312;43.460;11.810;2024-01-11T02:32:31;5.60;90.20
42135;DHT22;28312;43.460;11.810;2024-01-11T02:36:34;5.60;90.00
42135;DHT22;28312;43.460;11.810;2024-01-11T02:40:40;5.50;89.70
42135;DHT22;28312;43.460;11.810;2024-01-11T02:44:44;5.50;89.60
42135;DHT22;28312;43.460;11.810;2024-01-11T02:48:48;5.40;89.70
42135;DHT22;28312;43.460;11.810;2024-01-11T02:52:51;5.30;89.80
42135;DHT22;28312;43.460;11.810;2024-01-11T02:56:55;5.30;89.80
42135;DHT22;28312;43.460;11.810;2024-01-11T03:01:00;5.30;89.70
42135;DHT22;28312;43.460;11.810;2024-01-11T03:05:04;5.20;89.70
42135;DHT22;28312;43.460;11.810;2024-01-11T03:09:07;5.20;89.70
42135;DHT22;28312;43.460;11.810;2024-01-11T03:13:11;5.20;89.70
42135;DHT22;28312;43.460;11.810;2024-01-11T03:17:16;5.10;89.60
42135;DHT22;28312;43.460;11.810;2024-01-11T03:21:19;5.00;89.60
42135;DHT22;28312;43.460;11.810;2024-01-11T03:25:23;5.00;89.60
42135;DHT22;28312;43.460;11.810;2024-01-11T03:29:26;5.00;89.70
42135;DHT22;28312;43.460;11.810;2024-01-11T03:33:30;5.00;89.80
42135;DHT22;28312;43.460;11.810;2024-01-11T03:37:34;5.00;89.80
42135;DHT22;28312;43.460;11.810;2024-01-11T03:41:42;5.00;89.80
42135;DHT22;28312;43.460;11.810;2024-01-11T03:45:46;5.00;89.90
42135;DHT22;28312;43.460;11.810;2024-01-11T03:49:51;5.00;89.80
42135;DHT22;28312;43.460;11.810;2024-01-11T03:53:54;5.00;89.80
42135;DHT22;28312;43.460;11.810;2024-01-11T03:57:59;4.90;89.70
42135;DHT22;28312;43.460;11.810;2024-01-11T04:02:02;5.00;89.60
42135;DHT22;28312;43.460;11.810;2024-01-11T04:06:06;5.00;89.60
42135;DHT22;28312;43.460;11.810;2024-01-11T04:10:10;4.90;89.70
42135;DHT22;28312;43.460;11.810;2024-01-11T04:14:13;4.90;89.80
42135;DHT22;28312;43.460;11.810;2024-01-11T04:18:17;4.90;89.70
42135;DHT22;28312;43.460;11.810;2024-01-11T04:22:21;4.90;89.70
42135;DHT22;28312;43.460;11.810;2024-01-11T04:26:25;4.80;89.70
42135;DHT22;28312;43.460;11.810;2024-01-11T04:30:29;4.80;89.60
42135;DHT22;28312;43.460;11.810;2024-01-11T04:34:32;4.80;89.60
42135;DHT22;28312;43.460;11.810;2024-01-11T04:38:36;4.80;89.60
42135;DHT22;28312;43.460;11.810;2024-01-11T04:42:43;4.70;89.50
42135;DHT22;28312;43.460;11.810;2024-01-11T04:46:46;4.70;89.60
42135;DHT22;28312;43.460;11.810;2024-01-11T04:50:50;4.60;89.40
42135;DHT22;28312;43.460;11.810;2024-01-11T04:54:53;4.60;89.30
42135;DHT22;28312;43.460;11.810;2024-01-11T04:58:57;4.60;89.40
42135;DHT22;28312;43.460;11.810;2024-01-11T05:03:02;4.50;89.40
42135;DHT22;28312;43.460;11.810;2024-01-11T05:07:05;4.50;89.60
42135;DHT22;28312;43.460;11.810;2024-01-11T05:11:18;4.50;89.70
42135;DHT22;28312;43.460;11.810;2024-01-11T05:15:22;4.50;89.60
42135;DHT22;28312;43.460;11.810;2024-01-11T05:19:26;4.40;89.70
42135;DHT22;28312;43.460;11.810;2024-01-11T05:23:29;4.40;89.70
42135;DHT22;28312;43.460;11.810;2024-01-11T05:27:33;4.30;89.60
42135;DHT22;28312;43.460;11.810;2024-01-11T05:31:37;4.30;89.50
42135;DHT22;28312;43.460;11.810;2024-01-11T05:35:41;4.30;89.40
42135;DHT22;28312;43.460;11.810;2024-01-11T05:39:45;4.20;89.40
42135;DHT22;28312;43.460;11.810;2024-01-11T05:43:48;4.20;89.20
42135;DHT22;28312;43.460;11.810;2024-01-11T05:47:52;4.20;89.10
42135;DHT22;28312;43.460;11.810;2024-01-11T05:51:55;4.20;89.10
42135;DHT22;28312;43.460;11.810;2024-01-11T05:55:59;4.10;89.10
42135;DHT22;28312;43.460;11.810;2024-01-11T06:00:04;4.10;89.00
42135;DHT22;28312;43.460;11.810;2024-01-11T06:04:09;4.00;89.00
42135;DHT22;28312;43.460;11.810;2024-01-11T06:08:12;4.00;89.00
42135;DHT22;28312;43.460;11.810;2024-01-11T06:12:16;3.90;89.00
42135;DHT22;28312;43.460;11.810;2024-01-11T06:16:20;3.80;88.90
42135;DHT22;28312;43.460;11.810;2024-01-11T06:20:24;3.80;88.90
42135;DHT22;28312;43.460;11.810;2024-01-11T06:24:27;3.80;88.90
42135;DHT22;28312;43.460;11.810;2024-01-11T06:28:31;3.70;89.00
42135;DHT22;28312;43.460;11.810;2024-01-11T06:32:38;3.70;89.00
42135;DHT22;28312;43.460;11.810;2024-01-11T06:36:42;3.70;89.00
42135;DHT22;28312;43.460;11.810;2024-01-11T06:40:45;3.60;89.10
42135;DHT22;28312;43.460;11.810;2024-01-11T06:44:49;3.60;89.00
42135;DHT22;28312;43.460;11.810;2024-01-11T06:48:52;3.60;89.10
42135;DHT22;28312;43.460;11.810;2024-01-11T06:52:56;3.70;89.20
42135;DHT22;28312;43.460;11.810;2024-01-11T06:57:00;3.70;89.20
42135;DHT22;28312;43.460;11.810;2024-01-11T07:01:03;3.60;89.20
42135;DHT22;28312;43.460;11.810;2024-01-11T07:05:09;3.60;89.20
42135;DHT22;28312;43.460;11.810;2024-01-11T07:09:12;3.60;89.30
42135;DHT22;28312;43.460;11.810;2024-01-11T07:13:16;3.60;89.40
42135;DHT22;28312;43.460;11.810;2024-01-11T07:17:20;3.70;89.60
42135;DHT22;28312;43.460;11.810;2024-01-11T07:21:26;3.70;89.80
42135;DHT22;28312;43.460;11.810;2024-01-11T07:25:33;3.80;90.10
42135;DHT22;28312;43.460;11.810;2024-01-11T07:29:38;3.80;90.30
42135;DHT22;28312;43.460;11.810;2024-01-11T07:33:41;3.90;90.60
42135;DHT22;28312;43.460;11.810;2024-01-11T07:37:45;4.00;90.70
42135;DHT22;28312;43.460;11.810;2024-01-11T07:41:49;4.00;90.90
42135;DHT22;28312;43.460;11.810;2024-01-11T07:45:55;4.10;90.90
42135;DHT22;28312;43.460;11.810;2024-01-11T07:50:01;4.10;90.90
42135;DHT22;28312;43.460;11.810;2024-01-11T07:54:04;4.20;91.00
42135;DHT22;28312;43.460;11.810;2024-01-11T07:58:08;4.20;91.00
42135;DHT22;28312;43.460;11.810;2024-01-11T08:02:12;4.30;91.30
42135;DHT22;28312;43.460;11.810;2024-01-11T08:06:16;4.50;92.10
42135;DHT22;28312;43.460;11.810;2024-01-11T08:10:19;4.70;92.10
42135;DHT22;28312;43.460;11.810;2024-01-11T08:14:23;4.80;92.10
42135;DHT22;28312;43.460;11.810;2024-01-11T08:18:28;4.90;92.30
42135;DHT22;28312;43.460;11.810;2024-01-11T08:22:33;5.10;92.70
42135;DHT22;28312;43.460;11.810;2024-01-11T08:26:39;5.20;92.80
42135;DHT22;28312;43.460;11.810;2024-01-11T08:30:43;5.30;92.70
42135;DHT22;28312;43.460;11.810;2024-01-11T08:34:46;5.50;93.20
42135;DHT22;28312;43.460;11.810;2024-01-11T08:38:50;5.70;93.00
42135;DHT22;28312;43.460;11.810;2024-01-11T08:42:54;5.80;93.40
42135;DHT22;28312;43.460;11.810;2024-01-11T08:46:58;6.00;93.60
42135;DHT22;28312;43.460;11.810;2024-01-11T08:51:02;6.20;93.90
42135;DHT22;28312;43.460;11.810;2024-01-11T08:55:06;6.40;93.90
42135;DHT22;28312;43.460;11.810;2024-01-11T08:59:10;6.60;94.50
42135;DHT22;28312;43.460;11.810;2024-01-11T09:03:15;6.80;94.60
42135;DHT22;28312;43.460;11.810;2024-01-11T09:07:20;7.00;94.00
42135;DHT22;28312;43.460;11.810;2024-01-11T09:11:24;6.90;93.30
42135;DHT22;28312;43.460;11.810;2024-01-11T09:15:28;6.90;93.40
42135;DHT22;28312;43.460;11.810;2024-01-11T09:19:32;7.00;93.40
42135;DHT22;28312;43.460;11.810;2024-01-11T09:23:41;7.10;93.40
42135;DHT22;28312;43.460;11.810;2024-01-11T09:27:45;7.20;93.50
42135;DHT22;28312;43.460;11.810;2024-01-11T09:31:49;7.30;94.00
42135;DHT22;28312;43.460;11.810;2024-01-11T09:35:53;7.70;95.20
42135;DHT22;28312;43.460;11.810;2024-01-11T09:39:57;8.20;95.60
42135;DHT22;28312;43.460;11.810;2024-01-11T09:44:04;8.70;95.10
42135;DHT22;28312;43.460;11.810;2024-01-11T09:48:09;9.40;95.80
42135;DHT22;28312;43.460;11.810;2024-01-11T09:52:15;11.10;96.00
42135;DHT22;28312;43.460;11.810;2024-01-11T09:56:20;12.70;93.10
42135;DHT22;28312;43.460;11.810;2024-01-11T10:00:24;14.10;91.00
42135;DHT22;28312;43.460;11.810;2024-01-11T10:08:32;15.80;85.20
42135;DHT22;28312;43.460;11.810;2024-01-11T10:13:01;16.10;84.50
42135;DHT22;28312;43.460;11.810;2024-01-11T10:17:53;16.20;83.40
42135;DHT22;28312;43.460;11.810;2024-01-11T10:28:06;16.90;83.60
42135;DHT22;28312;43.460;11.810;2024-01-11T10:32:10;17.00;82.40
42135;DHT22;28312;43.460;11.810;2024-01-11T10:36:15;17.10;83.30
42135;DHT22;28312;43.460;11.810;2024-01-11T10:40:19;17.30;82.40
42135;DHT22;28312;43.460;11.810;2024-01-11T10:44:29;17.50;81.40
42135;DHT22;28312;43.460;11.810;2024-01-11T10:48:38;17.30;81.40
42135;DHT22;28312;43.460;11.810;2024-01-11T10:53:03;17.50;82.00
42135;DHT22;28312;43.460;11.810;2024-01-11T10:57:07;17.40;80.70
42135;DHT22;28312;43.460;11.810;2024-01-11T11:01:12;17.40;80.60
42135;DHT22;28312;43.460;11.810;2024-01-11T11:05:18;17.20;79.70
42135;DHT22;28312;43.460;11.810;2024-01-11T11:09:25;17.10;80.70
42135;DHT22;28312;43.460;11.810;2024-01-11T11:13:29;17.30;82.00
42135;DHT22;28312;43.460;11.810;2024-01-11T11:17:32;17.30;80.80
42135;DHT22;28312;43.460;11.810;2024-01-11T11:21:43;17.60;81.50
42135;DHT22;28312;43.460;11.810;2024-01-11T11:25:49;17.60;80.90
42135;DHT22;28312;43.460;11.810;2024-01-11T11:29:53;17.50;81.60
42135;DHT22;28312;43.460;11.810;2024-01-11T11:33:58;17.50;80.50
42135;DHT22;28312;43.460;11.810;2024-01-11T11:38:07;17.20;79.00
42135;DHT22;28312;43.460;11.810;2024-01-11T11:42:12;17.00;80.90
42135;DHT22;28312;43.460;11.810;2024-01-11T11:46:15;17.10;82.10
42135;DHT22;28312;43.460;11.810;2024-01-11T11:50:22;17.20;78.80
42135;DHT22;28312;43.460;11.810;2024-01-11T11:54:32;16.90;80.80
42135;DHT22;28312;43.460;11.810;2024-01-11T11:58:35;17.00;81.20
42135;DHT22;28312;43.460;11.810;2024-01-11T12:02:39;17.20;82.30
42135;DHT22;28312;43.460;11.810;2024-01-11T12:06:43;17.60;83.00
42135;DHT22;28312;43.460;11.810;2024-01-11T12:10:50;17.90;82.10
42135;DHT22;28312;43.460;11.810;2024-01-11T12:14:54;18.10;81.40
42135;DHT22;28312;43.460;11.810;2024-01-11T12:18:58;18.20;81.70
42135;DHT22;28312;43.460;11.810;2024-01-11T12:23:02;18.10;81.40
42135;DHT22;28312;43.460;11.810;2024-01-11T12:27:06;18.30;81.80
42135;DHT22;28312;43.460;11.810;2024-01-11T12:31:10;18.10;81.90
42135;DHT22;28312;43.460;11.810;2024-01-11T12:35:13;18.00;81.60
42135;DHT22;28312;43.460;11.810;2024-01-11T12:39:17;18.00;82.00
42135;DHT22;28312;43.460;11.810;2024-01-11T12:43:24;17.70;80.60
42135;DHT22;28312;43.460;11.810;2024-01-11T12:47:28;17.40;80.60
42135;DHT22;28312;43.460;11.810;2024-01-11T12:51:36;17.10;79.10
42135;DHT22;28312;43.460;11.810;2024-01-11T12:55:40;16.70;81.10
42135;DHT22;28312;43.460;11.810;2024-01-11T13:00:22;16.60;82.40
42135;DHT22;28312;43.460;11.810;2024-01-11T13:04:28;16.40;80.60
42135;DHT22;28312;43.460;11.810;2024-01-11T13:08:33;16.10;82.30
42135;DHT22;28312;43.460;11.810;2024-01-11T13:12:46;16.20;83.50
42135;DHT22;28312;43.460;11.810;2024-01-11T13:17:00;16.20;81.70
42135;DHT22;28312;43.460;11.810;2024-01-11T13:21:04;16.00;82.20
42135;DHT22;28312;43.460;11.810;2024-01-11T13:25:10;15.90;82.70
42135;DHT22;28312;43.460;11.810;2024-01-11T13:29:24;15.70;81.80
42135;DHT22;28312;43.460;11.810;2024-01-11T13:33:28;15.60;83.30
42135;DHT22;28312;43.460;11.810;2024-01-11T13:37:32;15.70;83.80
42135;DHT22;28312;43.460;11.810;2024-01-11T13:41:36;15.80;84.30
42135;DHT22;28312;43.460;11.810;2024-01-11T13:45:39;15.80;83.20
42135;DHT22;28312;43.460;11.810;2024-01-11T13:49:43;15.60;82.90
42135;DHT22;28312;43.460;11.810;2024-01-11T13:53:47;15.50;83.10
42135;DHT22;28312;43.460;11.810;2024-01-11T13:57:51;15.30;82.80
42135;DHT22;28312;43.460;11.810;2024-01-11T14:01:55;15.20;83.70
42135;DHT22;28312;43.460;11.810;2024-01-11T14:05:59;15.00;83.20
42135;DHT22;28312;43.460;11.810;2024-01-11T14:10:04;14.80;82.40
42135;DHT22;28312;43.460;11.810;2024-01-11T14:14:09;14.70;83.10
42135;DHT22;28312;43.460;11.810;2024-01-11T14:18:12;14.30;82.80
42135;DHT22;28312;43.460;11.810;2024-01-11T14:22:17;14.20;84.10
42135;DHT22;28312;43.460;11.810;2024-01-11T14:26:20;14.00;83.90
42135;DHT22;28312;43.460;11.810;2024-01-11T14:30:24;13.90;83.50
42135;DHT22;28312;43.460;11.810;2024-01-11T14:34:29;13.70;83.90
42135;DHT22;28312;43.460;11.810;2024-01-11T14:38:33;13.70;85.40
42135;DHT22;28312;43.460;11.810;2024-01-11T14:42:36;13.70;85.20
42135;DHT22;28312;43.460;11.810;2024-01-11T14:46:40;13.70;84.90
42135;DHT22;28312;43.460;11.810;2024-01-11T14:50:45;13.50;84.90
42135;DHT22;28312;43.460;11.810;2024-01-11T14:54:49;13.40;84.80
42135;DHT22;28312;43.460;11.810;2024-01-11T14:58:52;13.20;84.50
42135;DHT22;28312;43.460;11.810;2024-01-11T15:02:56;12.90;84.70
42135;DHT22;28312;43.460;11.810;2024-01-11T15:07:00;12.70;84.90
42135;DHT22;28312;43.460;11.810;2024-01-11T15:11:04;12.40;84.30
42135;DHT22;28312;43.460;11.810;2024-01-11T15:15:08;12.00;85.40
42135;DHT22;28312;43.460;11.810;2024-01-11T15:19:12;11.70;85.80
42135;DHT22;28312;43.460;11.810;2024-01-11T15:23:16;11.30;85.50
42135;DHT22;28312;43.460;11.810;2024-01-11T15:27:20;10.80;85.90
42135;DHT22;28312;43.460;11.810;2024-01-11T15:31:24;10.40;86.40
42135;DHT22;28312;43.460;11.810;2024-01-11T15:35:29;9.90;87.10
42135;DHT22;28312;43.460;11.810;2024-01-11T15:39:32;9.50;87.90
42135;DHT22;28312;43.460;11.810;2024-01-11T15:43:37;9.20;88.60
42135;DHT22;28312;43.460;11.810;2024-01-11T15:47:41;8.80;88.90
42135;DHT22;28312;43.460;11.810;2024-01-11T15:51:44;8.60;89.20
42135;DHT22;28312;43.460;11.810;2024-01-11T15:55:48;8.30;89.50
42135;DHT22;28312;43.460;11.810;2024-01-11T15:59:52;8.10;89.70
42135;DHT22;28312;43.460;11.810;2024-01-11T16:03:55;7.90;90.20
42135;DHT22;28312;43.460;11.810;2024-01-11T16:07:59;7.70;90.50
42135;DHT22;28312;43.460;11.810;2024-01-11T16:12:03;7.60;90.60
42135;DHT22;28312;43.460;11.810;2024-01-11T16:16:09;7.50;90.80
42135;DHT22;28312;43.460;11.810;2024-01-11T16:20:13;7.40;91.20
42135;DHT22;28312;43.460;11.810;2024-01-11T16:24:16;7.30;91.10
42135;DHT22;28312;43.460;11.810;2024-01-11T16:28:20;7.20;91.30
42135;DHT22;28312;43.460;11.810;2024-01-11T16:32:25;7.00;91.30
42135;DHT22;28312;43.460;11.810;2024-01-11T16:36:28;6.90;91.40
42135;DHT22;28312;43.460;11.810;2024-01-11T16:40:32;6.90;91.50
42135;DHT22;28312;43.460;11.810;2024-01-11T16:44:36;6.80;91.60
42135;DHT22;28312;43.460;11.810;2024-01-11T16:48:40;6.70;91.70
42135;DHT22;28312;43.460;11.810;2024-01-11T16:52:44;6.60;91.60
42135;DHT22;28312;43.460;11.810;2024-01-11T16:56:48;6.50;91.40
42135;DHT22;28312;43.460;11.810;2024-01-11T17:00:51;6.40;91.40
42135;DHT22;28312;43.460;11.810;2024-01-11T17:04:55;6.20;91.30
42135;DHT22;28312;43.460;11.810;2024-01-11T17:08:59;6.10;91.40
42135;DHT22;28312;43.460;11.810;2024-01-11T17:13:03;6.00;91.50
42135;DHT22;28312;43.460;11.810;2024-01-11T17:17:06;6.00;91.50
42135;DHT22;28312;43.460;11.810;2024-01-11T17:21:12;5.90;91.50
42135;DHT22;28312;43.460;11.810;2024-01-11T17:25:15;5.80;91.50
42135;DHT22;28312;43.460;11.810;2024-01-11T17:29:19;5.70;91.40
42135;DHT22;28312;43.460;11.810;2024-01-11T17:33:25;5.50;91.40
42135;DHT22;28312;43.460;11.810;2024-01-11T17:37:29;5.40;91.30
42135;DHT22;28312;43.460;11.810;2024-01-11T17:41:32;5.30;91.50
42135;DHT22;28312;43.460;11.810;2024-01-11T17:45:37;5.20;91.70
42135;DHT22;28312;43.460;11.810;2024-01-11T17:49:41;5.20;91.80
42135;DHT22;28312;43.460;11.810;2024-01-11T17:53:45;5.20;91.90
42135;DHT22;28312;43.460;11.810;2024-01-11T17:57:50;5.20;91.90
42135;DHT22;28312;43.460;11.810;2024-01-11T18:01:56;5.20;92.00
42135;DHT22;28312;43.460;11.810;2024-01-11T18:06:00;5.20;91.90
42135;DHT22;28312;43.460;11.810;2024-01-11T18:10:04;5.10;91.90
42135;DHT22;28312;43.460;11.810;2024-01-11T18:14:10;5.00;91.90
42135;DHT22;28312;43.460;11.810;2024-01-11T18:18:14;5.00;91.90
42135;DHT22;28312;43.460;11.810;2024-01-11T18:22:18;4.90;91.90
42135;DHT22;28312;43.460;11.810;2024-01-11T18:26:22;5.00;92.00
42135;DHT22;28312;43.460;11.810;2024-01-11T18:30:27;5.00;92.10
42135;DHT22;28312;43.460;11.810;2024-01-11T18:34:33;4.90;92.10
42135;DHT22;28312;43.460;11.810;2024-01-11T18:38:37;5.00;92.10
42135;DHT22;28312;43.460;11.810;2024-01-11T18:42:40;5.00;92.20
42135;DHT22;28312;43.460;11.810;2024-01-11T18:46:44;5.00;92.20
42135;DHT22;28312;43.460;11.810;2024-01-11T18:50:48;5.00;92.10
42135;DHT22;28312;43.460;11.810;2024-01-11T18:54:52;4.90;92.10
42135;DHT22;28312;43.460;11.810;2024-01-11T18:59:07;4.90;92.10
42135;DHT22;28312;43.460;11.810;2024-01-11T19:03:11;4.90;92.20
42135;DHT22;28312;43.460;11.810;2024-01-11T19:07:16;4.90;92.20
42135;DHT22;28312;43.460;11.810;2024-01-11T19:11:20;4.90;92.20
42135;DHT22;28312;43.460;11.810;2024-01-11T19:15:24;4.90;92.20
42135;DHT22;28312;43.460;11.810;2024-01-11T19:19:28;4.80;92.10
42135;DHT22;28312;43.460;11.810;2024-01-11T19:23:33;4.80;92.20
42135;DHT22;28312;43.460;11.810;2024-01-11T19:27:40;4.80;92.20
42135;DHT22;28312;43.460;11.810;2024-01-11T19:31:43;4.80;92.10
42135;DHT22;28312;43.460;11.810;2024-01-11T19:35:50;4.70;92.10
42135;DHT22;28312;43.460;11.810;2024-01-11T19:39:54;4.70;92.10
42135;DHT22;28312;43.460;11.810;2024-01-11T19:43:58;4.70;92.10
42135;DHT22;28312;43.460;11.810;2024-01-11T19:48:02;4.70;92.10
42135;DHT22;28312;43.460;11.810;2024-01-11T19:52:06;4.70;92.00
42135;DHT22;28312;43.460;11.810;2024-01-11T19:56:22;4.70;92.10
42135;DHT22;28312;43.460;11.810;2024-01-11T20:00:26;4.60;91.80
42135;DHT22;28312;43.460;11.810;2024-01-11T20:04:30;4.50;91.90
42135;DHT22;28312;43.460;11.810;2024-01-11T20:08:37;4.60;92.00
42135;DHT22;28312;43.460;11.810;2024-01-11T20:12:41;4.50;91.90
42135;DHT22;28312;43.460;11.810;2024-01-11T20:16:45;4.50;91.70
42135;DHT22;28312;43.460;11.810;2024-01-11T20:20:48;4.40;91.50
42135;DHT22;28312;43.460;11.810;2024-01-11T20:24:55;4.20;91.20
42135;DHT22;28312;43.460;11.810;2024-01-11T20:28:58;4.10;91.20
42135;DHT22;28312;43.460;11.810;2024-01-11T20:33:02;3.90;91.10
42135;DHT22;28312;43.460;11.810;2024-01-11T20:37:06;3.80;91.00
42135;DHT22;28312;43.460;11.810;2024-01-11T20:41:10;3.70;90.80
42135;DHT22;28312;43.460;11.810;2024-01-11T20:45:16;3.60;90.80
42135;DHT22;28312;43.460;11.810;2024-01-11T20:49:20;3.40;91.20
42135;DHT22;28312;43.460;11.810;2024-01-11T20:53:24;3.50;91.50
42135;DHT22;28312;43.460;11.810;2024-01-11T20:57:27;3.60;91.80
42135;DHT22;28312;43.460;11.810;2024-01-11T21:01:31;3.70;92.00
42135;DHT22;28312;43.460;11.810;2024-01-11T21:05:35;3.80;92.20
42135;DHT22;28312;43.460;11.810;2024-01-11T21:09:38;3.90;92.40
42135;DHT22;28312;43.460;11.810;2024-01-11T21:13:42;4.00;92.40
42135;DHT22;28312;43.460;11.810;2024-01-11T21:17:46;4.00;92.30
42135;DHT22;28312;43.460;11.810;2024-01-11T21:21:50;4.10;92.30
42135;DHT22;28312;43.460;11.810;2024-01-11T21:25:53;4.00;92.20
42135;DHT22;28312;43.460;11.810;2024-01-11T21:29:57;4.00;92.10
42135;DHT22;28312;43.460;11.810;2024-01-11T21:34:01;4.00;92.00
42135;DHT22;28312;43.460;11.810;2024-01-11T21:38:07;4.10;92.20
42135;DHT22;28312;43.460;11.810;2024-01-11T21:42:11;4.10;92.00
42135;DHT22;28312;43.460;11.810;2024-01-11T21:46:15;4.00;91.90
42135;DHT22;28312;43.460;11.810;2024-01-11T21:50:19;3.90;91.60
42135;DHT22;28312;43.460;11.810;2024-01-11T21:54:25;3.70;90.60
42135;DHT22;28312;43.460;11.810;2024-01-11T21:58:29;3.40;90.20
42135;DHT22;28312;43.460;11.810;2024-01-11T22:02:34;3.20;90.00
42135;DHT22;28312;43.460;11.810;2024-01-11T22:06:37;3.00;90.20
42135;DHT22;28312;43.460;11.810;2024-01-11T22:10:41;2.80;89.90
42135;DHT22;28312;43.460;11.810;2024-01-11T22:14:45;2.70;89.90
42135;DHT22;28312;43.460;11.810;2024-01-11T22:18:49;2.40;89.60
42135;DHT22;28312;43.460;11.810;2024-01-11T22:22:52;2.20;89.50
42135;DHT22;28312;43.460;11.810;2024-01-11T22:26:56;2.00;89.50
42135;DHT22;28312;43.460;11.810;2024-01-11T22:31:00;1.80;89.60
42135;DHT22;28312;43.460;11.810;2024-01-11T22:35:04;1.60;89.80
42135;DHT22;28312;43.460;11.810;2024-01-11T22:39:07;1.40;89.70
42135;DHT22;28312;43.460;11.810;2024-01-11T22:43:11;1.30;89.70
42135;DHT22;28312;43.460;11.810;2024-01-11T22:47:15;1.20;89.90
42135;DHT22;28312;43.460;11.810;2024-01-11T22:51:18;1.00;90.00
42135;DHT22;28312;43.460;11.810;2024-01-11T22:55:22;1.00;90.10
42135;DHT22;28312;43.460;11.810;2024-01-11T22:59:25;0.90;90.20
42135;DHT22;28312;43.460;11.810;2024-01-11T23:03:29;0.80;90.20
42135;DHT22;28312;43.460;11.810;2024-01-11T23:07:33;0.70;90.10
42135;DHT22;28312;43.460;11.810;2024-01-11T23:11:37;0.70;89.90
42135;DHT22;28312;43.460;11.810;2024-01-11T23:15:40;0.50;89.90
42135;DHT22;28312;43.460;11.810;2024-01-11T23:19:44;0.40;89.90
42135;DHT22;28312;43.460;11.810;2024-01-11T23:23:48;0.30;89.80
42135;DHT22;28312;43.460;11.810;2024-01-11T23:27:52;0.20;90.10
42135;DHT22;28312;43.460;11.810;2024-01-11T23:31:55;0.10;90.30
42135;DHT22;28312;43.460;11.810;2024-01-11T23:35:59;0.10;90.20
42135;DHT22;28312;43.460;11.810;2024-01-11T23:40:04;0.00;90.30
42135;DHT22;28312;43.460;11.810;2024-01-11T23:44:08;0.00;90.20
42135;DHT22;28312;43.460;11.810;2024-01-11T23:48:12;0.00;90.40
42135;DHT22;28312;43.460;11.810;2024-01-11T23:52:15;0.00;90.50
42135;DHT22;28312;43.460;11.810;2024-01-11T23:56:19;-3276.70;90.40
